Nobel, Canada
Current Conditions -  °F | °C
As of 4:03 AM on Sunday 26 Oct 2014 (Local Time) from CYQA Reporting Station
Overcast Overcast  
Wind Chill: 36°   Ceiling: 2500
Heat Index: 43°   Visibility: 9mi
Dew Point: 39°   Wind: 13mph
Humidity: 87%   Direction: 330°NNW
Pressure: 29.56"   Gusts: 23mph
Location:  45.41°N, 80.09°W
Report Text: CYQA 260803Z AUTO 33011G20KT 9SM SCT017 BKN025 OVC036 06/04 A2956 RMK SLP014
Loading
Personal Weather Stations






























Interactive Weather Map
Tropical Storm Tracking
New forecast layout! Learn more

10-Day Weather Forecast

Advertisements
Track Severe Weather on mobile